Saint-Sauveur, Quebec

2:35 AM EST on January 26, 2015 (GMT -0500)
Morin-Heights | Change Station
CLOSE
Current Station
Personal Weather Station
Location: Morin-Heights, QUEBEC
Elevation: 1086 ft
Nearby Weather Stations

Elev 1086 ft 45.92 °N, 74.24 °W | Updated 6 minutes ago

Clear
Clear
-10.5 °F
Feels Like -10 °F
N
0.0
Wind Variable Wind from NNW

Today is forecast to be nearly the same temperature as yesterday.

Today
High -- | Low -- °F
--% Chance of Precip.
Yesterday
High -- | Low -- °F
Precip. -- in
7:25 AM 4:53 PM
Waxing Crescent, 40% visible
Pressure 30.16 in
Visibility 25.0 miles
Clouds Clear
Windchill -10 °F
Dew Point -26 °F
Humidity 46%
Rainfall 0.00 in
Snow Depth Not available.
UV 0 out of 12
Pollen Not available.
Air Quality Not available.
Flu Activity Not available.
METAR CYMX 260700Z 23003KT 25SM SKC M21/M25 A3013 RMK SLP212

More Conditions Fewer Conditions

Pressure 30.16 in
Visibility 25.0 miles
Clouds Clear
Windchill -10 °F
Dew Point -26 °F
Humidity 46%
Rainfall 0.00 in
Snow Depth Not available.
UV 0 out of 12
Pollen Not available.
Air Quality Not available.
Flu Activity Not available.
METAR CYMX 260700Z 23003KT 25SM SKC M21/M25 A3013 RMK SLP212

More Conditions Fewer Conditions

10-Day Weather Forecast

Almanac

Astronomy

Jan. 26, 2015 Rise Set
Actual Time
Civil Twilight
Nautical Twilight
Astronomical Twilight
Moon
Length of Visible Light
Length of Day
Tomorrow will be .
, % of the Moon is Illuminated

Today's Extremes

Country Highs Country Lows

Community

WunderPhotos

Upload Photos

1,790,155 photos uploaded!

WunderBlogs® & News

Nearby

Air Quality

  Air Quality AQ Index Pollutant
Not available.

Snow Depth

Station Depth Elevation

Earthquake Activity

City Distance Mag. Time & Date
Minimum magnitude displayed is 2.5.

Coastal Water Temperatures

Place Temperature

Nearby Weather Stations